sensor_id;sensor_type;location;lat;lon;timestamp;pressure;altitude;pressure_sealevel;temperature;humidity
19005;BME280;9635;52.078;8.648;2023-02-28T00:04:06;101902.06;;;-0.03;60.26
19005;BME280;9635;52.078;8.648;2023-02-28T00:09:12;101911.91;;;-0.15;60.43
19005;BME280;9635;52.078;8.648;2023-02-28T00:14:14;101902.94;;;0.00;60.92
19005;BME280;9635;52.078;8.648;2023-02-28T00:19:17;101907.13;;;0.15;60.88
19005;BME280;9635;52.078;8.648;2023-02-28T00:24:21;101896.59;;;0.10;60.72
19005;BME280;9635;52.078;8.648;2023-02-28T00:29:24;101904.63;;;0.04;60.47
19005;BME280;9635;52.078;8.648;2023-02-28T00:34:27;101913.63;;;-0.12;61.04
19005;BME280;9635;52.078;8.648;2023-02-28T00:39:33;101911.97;;;-0.21;61.42
19005;BME280;9635;52.078;8.648;2023-02-28T00:44:36;101915.44;;;-0.16;61.55
19005;BME280;9635;52.078;8.648;2023-02-28T00:49:39;101915.50;;;-0.19;61.84
19005;BME280;9635;52.078;8.648;2023-02-28T00:54:44;101917.22;;;-0.19;62.35
19005;BME280;9635;52.078;8.648;2023-02-28T00:59:49;101913.72;;;-0.20;62.29
19005;BME280;9635;52.078;8.648;2023-02-28T01:04:51;101923.38;;;-0.17;62.98
19005;BME280;9635;52.078;8.648;2023-02-28T01:09:56;101923.28;;;-0.11;62.65
19005;BME280;9635;52.078;8.648;2023-02-28T01:14:59;101922.50;;;-0.19;62.51
19005;BME280;9635;52.078;8.648;2023-02-28T01:20:02;101919.13;;;-0.29;62.90
19005;BME280;9635;52.078;8.648;2023-02-28T01:25:08;101919.28;;;-0.44;63.21
19005;BME280;9635;52.078;8.648;2023-02-28T01:30:11;101914.16;;;-0.57;63.31
19005;BME280;9635;52.078;8.648;2023-02-28T01:35:14;101914.16;;;-0.57;63.67
19005;BME280;9635;52.078;8.648;2023-02-28T01:40:19;101921.19;;;-0.59;63.59
19005;BME280;9635;52.078;8.648;2023-02-28T01:45:24;101917.78;;;-0.72;63.50
19005;BME280;9635;52.078;8.648;2023-02-28T01:50:29;101916.09;;;-0.76;64.10
19005;BME280;9635;52.078;8.648;2023-02-28T01:55:35;101917.88;;;-0.76;64.04
19005;BME280;9635;52.078;8.648;2023-02-28T02:00:38;101914.31;;;-0.75;64.23
19005;BME280;9635;52.078;8.648;2023-02-28T02:05:44;101916.06;;;-0.74;64.01
19005;BME280;9635;52.078;8.648;2023-02-28T02:10:52;101917.88;;;-0.76;63.84
19005;BME280;9635;52.078;8.648;2023-02-28T02:16:01;101914.31;;;-0.74;63.91
19005;BME280;9635;52.078;8.648;2023-02-28T02:21:24;101915.06;;;-0.59;63.84
19005;BME280;9635;52.078;8.648;2023-02-28T02:26:50;101912.38;;;-0.55;63.73
19005;BME280;9635;52.078;8.648;2023-02-28T02:32:14;101908.94;;;-0.66;62.96
19005;BME280;9635;52.078;8.648;2023-02-28T02:37:26;101903.72;;;-0.72;63.02
19005;BME280;9635;52.078;8.648;2023-02-28T02:42:40;101898.59;;;-0.84;63.22
19005;BME280;9635;52.078;8.648;2023-02-28T02:47:45;101911.91;;;-1.00;63.61
19005;BME280;9635;52.078;8.648;2023-02-28T02:52:52;101913.78;;;-1.15;64.39
19005;BME280;9635;52.078;8.648;2023-02-28T02:57:59;101915.69;;;-1.31;65.16
19005;BME280;9635;52.078;8.648;2023-02-28T03:03:05;101921.03;;;-1.44;65.92
19005;BME280;9635;52.078;8.648;2023-02-28T03:08:11;101923.69;;;-1.42;65.55
19005;BME280;9635;52.078;8.648;2023-02-28T03:13:32;101928.16;;;-1.53;66.02
19005;BME280;9635;52.078;8.648;2023-02-28T03:18:43;101919.38;;;-1.55;66.85
19005;BME280;9635;52.078;8.648;2023-02-28T03:23:56;101915.84;;;-1.57;67.09
19005;BME280;9635;52.078;8.648;2023-02-28T03:29:06;101922.81;;;-1.49;67.17
19005;BME280;9635;52.078;8.648;2023-02-28T03:34:18;101913.16;;;-1.48;67.37
19005;BME280;9635;52.078;8.648;2023-02-28T03:39:27;101914.94;;;-1.50;67.00
19005;BME280;9635;52.078;8.648;2023-02-28T03:44:35;101912.22;;;-1.43;67.02
19005;BME280;9635;52.078;8.648;2023-02-28T03:49:42;101911.38;;;-1.45;66.82
19005;BME280;9635;52.078;8.648;2023-02-28T03:54:52;101904.38;;;-1.49;66.16
19005;BME280;9635;52.078;8.648;2023-02-28T03:59:59;101912.38;;;-1.61;66.55
19005;BME280;9635;52.078;8.648;2023-02-28T04:05:12;101916.00;;;-1.82;66.77
19005;BME280;9635;52.078;8.648;2023-02-28T04:10:17;101918.63;;;-1.82;67.00
19005;BME280;9635;52.078;8.648;2023-02-28T04:15:20;101914.25;;;-1.85;66.86
19005;BME280;9635;52.078;8.648;2023-02-28T04:20:24;101909.88;;;-1.87;67.12
19005;BME280;9635;52.078;8.648;2023-02-28T04:25:28;101909.03;;;-1.98;67.40
19005;BME280;9635;52.078;8.648;2023-02-28T04:30:31;101912.69;;;-2.32;68.20
19005;BME280;9635;52.078;8.648;2023-02-28T04:35:34;101917.97;;;-2.39;68.86
19005;BME280;9635;52.078;8.648;2023-02-28T04:40:38;101907.47;;;-2.45;69.07
19005;BME280;9635;52.078;8.648;2023-02-28T04:45:41;101921.53;;;-2.49;69.32
19005;BME280;9635;52.078;8.648;2023-02-28T04:50:44;101917.16;;;-2.69;69.43
19005;BME280;9635;52.078;8.648;2023-02-28T04:55:48;101913.66;;;-2.77;70.45
19005;BME280;9635;52.078;8.648;2023-02-28T05:00:52;101918.06;;;-2.68;70.81
19005;BME280;9635;52.078;8.648;2023-02-28T05:05:55;101918.03;;;-2.59;70.80
19005;BME280;9635;52.078;8.648;2023-02-28T05:10:59;101918.88;;;-2.48;70.37
19005;BME280;9635;52.078;8.648;2023-02-28T05:16:03;101925.00;;;-2.47;69.98
19005;BME280;9635;52.078;8.648;2023-02-28T05:21:21;101931.16;;;-2.50;70.07
19005;BME280;9635;52.078;8.648;2023-02-28T05:26:27;101931.19;;;-2.58;70.13
19005;BME280;9635;52.078;8.648;2023-02-28T05:31:30;101935.53;;;-2.44;69.98
19005;BME280;9635;52.078;8.648;2023-02-28T05:36:36;101931.13;;;-2.36;69.48
19005;BME280;9635;52.078;8.648;2023-02-28T05:41:42;101938.16;;;-2.43;69.74
19005;BME280;9635;52.078;8.648;2023-02-28T05:46:45;101936.44;;;-2.52;69.45
19005;BME280;9635;52.078;8.648;2023-02-28T05:51:48;101937.31;;;-2.53;69.73
19005;BME280;9635;52.078;8.648;2023-02-28T05:56:52;101938.19;;;-2.57;69.74
19005;BME280;9635;52.078;8.648;2023-02-28T06:01:55;101942.59;;;-2.59;70.10
19005;BME280;9635;52.078;8.648;2023-02-28T06:06:58;101940.84;;;-2.60;69.87
19005;BME280;9635;52.078;8.648;2023-02-28T06:12:03;101939.09;;;-2.67;69.83
19005;BME280;9635;52.078;8.648;2023-02-28T06:17:08;101934.72;;;-2.91;70.65
19005;BME280;9635;52.078;8.648;2023-02-28T06:22:12;101932.09;;;-3.02;70.68
19005;BME280;9635;52.078;8.648;2023-02-28T06:27:16;101937.34;;;-2.97;70.78
19005;BME280;9635;52.078;8.648;2023-02-28T06:32:18;101942.63;;;-2.82;70.80
19005;BME280;9635;52.078;8.648;2023-02-28T06:37:21;101948.75;;;-2.60;70.76
19005;BME280;9635;52.078;8.648;2023-02-28T06:42:28;101948.63;;;-2.20;70.76
19005;BME280;9635;52.078;8.648;2023-02-28T06:47:32;101954.56;;;-1.66;69.84
19005;BME280;9635;52.078;8.648;2023-02-28T06:52:35;101961.31;;;-1.22;68.28
19005;BME280;9635;52.078;8.648;2023-02-28T06:57:40;101970.81;;;-0.99;66.81
19005;BME280;9635;52.078;8.648;2023-02-28T07:02:43;101973.16;;;-0.64;65.70
19005;BME280;9635;52.078;8.648;2023-02-28T07:07:46;101979.88;;;-0.31;63.77
19005;BME280;9635;52.078;8.648;2023-02-28T07:12:50;101987.59;;;-0.12;62.41
19005;BME280;9635;52.078;8.648;2023-02-28T07:17:53;101992.44;;;0.25;61.80
19005;BME280;9635;52.078;8.648;2023-02-28T07:22:55;101990.25;;;0.59;61.26
19005;BME280;9635;52.078;8.648;2023-02-28T07:27:59;101991.41;;;1.00;60.05
19005;BME280;9635;52.078;8.648;2023-02-28T07:33:02;102003.44;;;1.19;59.22
19005;BME280;9635;52.078;8.648;2023-02-28T07:38:06;102000.41;;;1.42;58.49
19005;BME280;9635;52.078;8.648;2023-02-28T07:43:11;102005.69;;;1.44;57.63
19005;BME280;9635;52.078;8.648;2023-02-28T07:48:14;102006.59;;;0.87;58.90
19005;BME280;9635;52.078;8.648;2023-02-28T07:53:17;102006.69;;;1.37;59.14
19005;BME280;9635;52.078;8.648;2023-02-28T07:58:21;101992.81;;;1.72;57.10
19005;BME280;9635;52.078;8.648;2023-02-28T08:03:24;101991.81;;;2.24;55.58
19005;BME280;9635;52.078;8.648;2023-02-28T08:08:27;101994.97;;;2.83;54.12
19005;BME280;9635;52.078;8.648;2023-02-28T08:13:34;101999.16;;;2.94;53.71
19005;BME280;9635;52.078;8.648;2023-02-28T08:18:36;101997.25;;;2.99;54.04
19005;BME280;9635;52.078;8.648;2023-02-28T08:23:39;101986.94;;;3.22;52.39
19005;BME280;9635;52.078;8.648;2023-02-28T08:28:44;101986.78;;;2.10;54.73
19005;BME280;9635;52.078;8.648;2023-02-28T08:33:47;101993.09;;;2.47;54.60
19005;BME280;9635;52.078;8.648;2023-02-28T08:38:52;101987.44;;;2.22;56.13
19005;BME280;9635;52.078;8.648;2023-02-28T08:43:56;101995.06;;;2.79;55.78
19005;BME280;9635;52.078;8.648;2023-02-28T08:48:59;101982.91;;;3.43;53.63
19005;BME280;9635;52.078;8.648;2023-02-28T08:54:03;101995.84;;;3.56;53.14
19005;BME280;9635;52.078;8.648;2023-02-28T08:59:08;101999.50;;;3.52;53.47
19005;BME280;9635;52.078;8.648;2023-02-28T09:04:11;101993.09;;;3.59;53.74
19005;BME280;9635;52.078;8.648;2023-02-28T09:09:20;101995.63;;;4.29;51.47
19005;BME280;9635;52.078;8.648;2023-02-28T09:14:24;101987.94;;;3.87;52.37
19005;BME280;9635;52.078;8.648;2023-02-28T09:19:27;101990.56;;;5.34;48.38
19005;BME280;9635;52.078;8.648;2023-02-28T09:24:30;101974.44;;;6.37;44.11
19005;BME280;9635;52.078;8.648;2023-02-28T09:29:34;101979.22;;;7.18;43.84
19005;BME280;9635;52.078;8.648;2023-02-28T09:34:37;101981.91;;;6.96;42.50
19005;BME280;9635;52.078;8.648;2023-02-28T09:39:40;101989.38;;;5.42;44.07
19005;BME280;9635;52.078;8.648;2023-02-28T09:44:46;101984.53;;;5.55;44.99
19005;BME280;9635;52.078;8.648;2023-02-28T09:49:50;101981.88;;;6.74;42.70
19005;BME280;9635;52.078;8.648;2023-02-28T09:54:53;101980.44;;;7.74;41.11
19005;BME280;9635;52.078;8.648;2023-02-28T10:00:07;101969.22;;;8.05;36.55
19005;BME280;9635;52.078;8.648;2023-02-28T10:05:23;101979.09;;;8.24;36.73
19005;BME280;9635;52.078;8.648;2023-02-28T10:10:35;101987.69;;;7.70;37.05
19005;BME280;9635;52.078;8.648;2023-02-28T10:15:41;101974.78;;;8.01;37.78
19005;BME280;9635;52.078;8.648;2023-02-28T10:20:45;101980.06;;;8.02;37.34
19005;BME280;9635;52.078;8.648;2023-02-28T10:25:54;101972.13;;;8.78;36.21
19005;BME280;9635;52.078;8.648;2023-02-28T10:31:00;101964.50;;;8.88;36.23
19005;BME280;9635;52.078;8.648;2023-02-28T10:36:04;101971.00;;;9.18;35.75
19005;BME280;9635;52.078;8.648;2023-02-28T10:41:09;101966.78;;;9.49;35.07
19005;BME280;9635;52.078;8.648;2023-02-28T10:46:16;101956.03;;;9.66;34.84
19005;BME280;9635;52.078;8.648;2023-02-28T10:51:34;101951.94;;;9.77;34.26
19005;BME280;9635;52.078;8.648;2023-02-28T10:56:37;101956.56;;;7.90;35.82
19005;BME280;9635;52.078;8.648;2023-02-28T11:01:43;101955.28;;;8.17;36.49
19005;BME280;9635;52.078;8.648;2023-02-28T11:06:47;101950.44;;;9.36;35.74
19005;BME280;9635;52.078;8.648;2023-02-28T11:11:51;101939.94;;;10.96;31.85
19005;BME280;9635;52.078;8.648;2023-02-28T11:16:59;101934.69;;;10.31;32.30
19005;BME280;9635;52.078;8.648;2023-02-28T11:22:05;101942.16;;;10.74;31.81
19005;BME280;9635;52.078;8.648;2023-02-28T11:27:24;101943.78;;;10.76;30.44
19005;BME280;9635;52.078;8.648;2023-02-28T11:32:30;101931.66;;;11.31;31.09
19005;BME280;9635;52.078;8.648;2023-02-28T11:37:34;101924.13;;;11.52;30.47
19005;BME280;9635;52.078;8.648;2023-02-28T11:42:50;101922.13;;;11.70;30.60
19005;BME280;9635;52.078;8.648;2023-02-28T11:48:04;101915.41;;;12.06;29.82
19005;BME280;9635;52.078;8.648;2023-02-28T11:53:19;101912.22;;;12.28;29.13
19005;BME280;9635;52.078;8.648;2023-02-28T11:58:32;101914.81;;;12.85;29.08
19005;BME280;9635;52.078;8.648;2023-02-28T12:03:45;101904.75;;;12.04;29.63
19005;BME280;9635;52.078;8.648;2023-02-28T12:09:08;101900.38;;;11.44;30.48
19005;BME280;9635;52.078;8.648;2023-02-28T12:14:40;101885.75;;;12.49;29.75
19005;BME280;9635;52.078;8.648;2023-02-28T12:19:50;101894.25;;;10.80;30.68
19005;BME280;9635;52.078;8.648;2023-02-28T12:25:29;101881.97;;;11.22;31.49
19005;BME280;9635;52.078;8.648;2023-02-28T12:30:37;101875.38;;;13.10;29.50
19005;BME280;9635;52.078;8.648;2023-02-28T12:35:48;101868.31;;;12.26;28.85
19005;BME280;9635;52.078;8.648;2023-02-28T12:40:56;101877.72;;;10.09;31.51
19005;BME280;9635;52.078;8.648;2023-02-28T12:46:02;101869.19;;;10.18;32.79
19005;BME280;9635;52.078;8.648;2023-02-28T12:51:12;101856.75;;;10.63;31.93
19005;BME280;9635;52.078;8.648;2023-02-28T12:56:20;101862.88;;;10.81;30.96
19005;BME280;9635;52.078;8.648;2023-02-28T13:07:19;101844.03;;;12.81;29.81
19005;BME280;9635;52.078;8.648;2023-02-28T13:12:26;101831.00;;;15.23;26.97
19005;BME280;9635;52.078;8.648;2023-02-28T13:17:30;101829.69;;;14.94;25.84
19005;BME280;9635;52.078;8.648;2023-02-28T13:22:40;101826.78;;;12.30;28.75
19005;BME280;9635;52.078;8.648;2023-02-28T13:27:43;101841.81;;;14.16;27.21
19005;BME280;9635;52.078;8.648;2023-02-28T13:38:35;101828.28;;;14.53;26.98
19005;BME280;9635;52.078;8.648;2023-02-28T13:44:00;101826.19;;;13.19;28.34
19005;BME280;9635;52.078;8.648;2023-02-28T13:49:19;101822.88;;;12.75;29.03
19005;BME280;9635;52.078;8.648;2023-02-28T13:54:35;101817.28;;;12.78;29.60
19005;BME280;9635;52.078;8.648;2023-02-28T13:59:49;101820.84;;;12.52;29.95
19005;BME280;9635;52.078;8.648;2023-02-28T14:05:00;101818.56;;;11.90;30.28
19005;BME280;9635;52.078;8.648;2023-02-28T14:10:06;101807.91;;;11.60;30.71
19005;BME280;9635;52.078;8.648;2023-02-28T14:20:46;101804.44;;;11.86;30.89
19005;BME280;9635;52.078;8.648;2023-02-28T14:26:00;101798.09;;;12.56;30.19
19005;BME280;9635;52.078;8.648;2023-02-28T14:31:09;101789.06;;;11.88;31.23
19005;BME280;9635;52.078;8.648;2023-02-28T14:36:18;101789.47;;;12.09;31.33
19005;BME280;9635;52.078;8.648;2023-02-28T14:41:29;101784.25;;;11.93;31.27
19005;BME280;9635;52.078;8.648;2023-02-28T14:46:36;101785.41;;;11.75;31.46
19005;BME280;9635;52.078;8.648;2023-02-28T14:51:40;101791.47;;;10.91;32.74
19005;BME280;9635;52.078;8.648;2023-02-28T14:56:49;101785.72;;;11.56;32.35
19005;BME280;9635;52.078;8.648;2023-02-28T15:01:58;101801.75;;;10.38;33.49
19005;BME280;9635;52.078;8.648;2023-02-28T15:07:10;101794.59;;;10.23;34.16
19005;BME280;9635;52.078;8.648;2023-02-28T15:12:15;101798.50;;;10.17;34.06
19005;BME280;9635;52.078;8.648;2023-02-28T15:17:22;101805.22;;;10.25;33.64
19005;BME280;9635;52.078;8.648;2023-02-28T15:22:29;101799.06;;;10.23;34.12
19005;BME280;9635;52.078;8.648;2023-02-28T15:27:40;101800.47;;;9.49;34.88
19005;BME280;9635;52.078;8.648;2023-02-28T15:32:44;101806.53;;;9.53;34.50
19005;BME280;9635;52.078;8.648;2023-02-28T15:37:52;101799.41;;;9.18;34.41
19005;BME280;9635;52.078;8.648;2023-02-28T15:43:15;101801.41;;;8.97;34.72
19005;BME280;9635;52.078;8.648;2023-02-28T15:48:22;101816.72;;;8.78;35.36
19005;BME280;9635;52.078;8.648;2023-02-28T15:53:30;101806.75;;;8.26;36.05
19005;BME280;9635;52.078;8.648;2023-02-28T15:58:36;101803.22;;;7.69;36.98
19005;BME280;9635;52.078;8.648;2023-02-28T16:03:41;101815.88;;;7.05;38.64
19005;BME280;9635;52.078;8.648;2023-02-28T16:08:46;101811.19;;;6.90;39.20
19005;BME280;9635;52.078;8.648;2023-02-28T16:13:52;101809.25;;;6.94;39.06
19005;BME280;9635;52.078;8.648;2023-02-28T16:18:55;101809.25;;;7.14;39.09
19005;BME280;9635;52.078;8.648;2023-02-28T16:23:58;101796.69;;;6.96;39.37
19005;BME280;9635;52.078;8.648;2023-02-28T16:29:02;101809.75;;;6.81;39.63
19005;BME280;9635;52.078;8.648;2023-02-28T16:34:05;101814.53;;;6.53;39.90
19005;BME280;9635;52.078;8.648;2023-02-28T16:39:08;101818.06;;;6.31;40.47
19005;BME280;9635;52.078;8.648;2023-02-28T16:44:18;101829.03;;;6.02;41.05
19005;BME280;9635;52.078;8.648;2023-02-28T16:49:23;101825.66;;;5.73;41.42
19005;BME280;9635;52.078;8.648;2023-02-28T16:54:26;101822.81;;;5.31;42.44
19005;BME280;9635;52.078;8.648;2023-02-28T16:59:30;101825.13;;;4.88;43.27
19005;BME280;9635;52.078;8.648;2023-02-28T17:04:33;101830.41;;;4.63;44.01
19005;BME280;9635;52.078;8.648;2023-02-28T17:09:36;101837.03;;;4.51;44.50
19005;BME280;9635;52.078;8.648;2023-02-28T17:14:45;101829.50;;;4.37;44.78
19005;BME280;9635;52.078;8.648;2023-02-28T17:19:48;101839.84;;;4.18;45.26
19005;BME280;9635;52.078;8.648;2023-02-28T17:24:50;101838.47;;;4.05;45.63
19005;BME280;9635;52.078;8.648;2023-02-28T17:29:55;101840.66;;;3.92;45.79
19005;BME280;9635;52.078;8.648;2023-02-28T17:34:57;101844.31;;;3.88;46.34
19005;BME280;9635;52.078;8.648;2023-02-28T17:40:01;101848.22;;;3.77;46.49
19005;BME280;9635;52.078;8.648;2023-02-28T17:45:06;101849.34;;;3.68;46.64
19005;BME280;9635;52.078;8.648;2023-02-28T17:50:14;101853.84;;;3.66;46.70
19005;BME280;9635;52.078;8.648;2023-02-28T17:55:17;101862.88;;;3.59;46.94
19005;BME280;9635;52.078;8.648;2023-02-28T18:00:22;101873.69;;;3.53;47.22
19005;BME280;9635;52.078;8.648;2023-02-28T18:05:26;101879.13;;;3.48;47.36
19005;BME280;9635;52.078;8.648;2023-02-28T18:10:29;101879.28;;;3.43;47.49
19005;BME280;9635;52.078;8.648;2023-02-28T18:15:36;101877.97;;;3.25;47.74
19005;BME280;9635;52.078;8.648;2023-02-28T18:20:41;101884.44;;;3.15;48.07
19005;BME280;9635;52.078;8.648;2023-02-28T18:25:44;101879.25;;;3.11;48.36
19005;BME280;9635;52.078;8.648;2023-02-28T18:30:49;101883.06;;;3.00;48.44
19005;BME280;9635;52.078;8.648;2023-02-28T18:35:55;101879.88;;;2.86;48.74
19005;BME280;9635;52.078;8.648;2023-02-28T18:40:59;101875.69;;;2.77;48.95
19005;BME280;9635;52.078;8.648;2023-02-28T18:46:05;101875.78;;;2.74;49.04
19005;BME280;9635;52.078;8.648;2023-02-28T18:51:09;101875.97;;;2.65;49.19
19005;BME280;9635;52.078;8.648;2023-02-28T18:56:14;101874.34;;;2.59;49.67
19005;BME280;9635;52.078;8.648;2023-02-28T19:01:20;101882.38;;;2.56;49.85
19005;BME280;9635;52.078;8.648;2023-02-28T19:06:23;101878.22;;;2.45;50.03
19005;BME280;9635;52.078;8.648;2023-02-28T19:11:26;101868.78;;;2.31;50.17
19005;BME280;9635;52.078;8.648;2023-02-28T19:16:31;101869.72;;;2.29;50.33
19005;BME280;9635;52.078;8.648;2023-02-28T19:21:34;101871.63;;;2.22;50.33
19005;BME280;9635;52.078;8.648;2023-02-28T19:26:37;101876.94;;;2.22;50.47
19005;BME280;9635;52.078;8.648;2023-02-28T19:31:41;101878.78;;;2.18;50.21
19005;BME280;9635;52.078;8.648;2023-02-28T19:36:44;101878.75;;;2.20;50.32
19005;BME280;9635;52.078;8.648;2023-02-28T19:41:47;101885.09;;;2.14;50.46
19005;BME280;9635;52.078;8.648;2023-02-28T19:46:51;101881.84;;;2.00;50.78
19005;BME280;9635;52.078;8.648;2023-02-28T19:51:55;101885.56;;;1.91;50.86
19005;BME280;9635;52.078;8.648;2023-02-28T19:56:57;101883.03;;;1.85;51.45
19005;BME280;9635;52.078;8.648;2023-02-28T20:02:02;101876.16;;;1.77;51.52
19005;BME280;9635;52.078;8.648;2023-02-28T20:07:04;101874.56;;;1.68;51.32
19005;BME280;9635;52.078;8.648;2023-02-28T20:12:07;101874.44;;;1.76;51.41
19005;BME280;9635;52.078;8.648;2023-02-28T20:17:27;101870.94;;;1.72;51.76
19005;BME280;9635;52.078;8.648;2023-02-28T20:22:30;101877.25;;;1.66;51.63
19005;BME280;9635;52.078;8.648;2023-02-28T20:27:33;101881.69;;;1.64;52.04
19005;BME280;9635;52.078;8.648;2023-02-28T20:32:38;101888.91;;;1.58;51.65
19005;BME280;9635;52.078;8.648;2023-02-28T20:37:41;101896.25;;;1.43;51.99
19005;BME280;9635;52.078;8.648;2023-02-28T20:42:43;101897.38;;;1.30;52.03
19005;BME280;9635;52.078;8.648;2023-02-28T20:47:49;101898.72;;;1.04;52.57
19005;BME280;9635;52.078;8.648;2023-02-28T20:52:52;101898.97;;;0.89;53.23
19005;BME280;9635;52.078;8.648;2023-02-28T20:57:55;101912.88;;;1.02;53.59
19005;BME280;9635;52.078;8.648;2023-02-28T21:03:00;101903.97;;;1.08;53.40
19005;BME280;9635;52.078;8.648;2023-02-28T21:08:03;101913.63;;;1.09;52.93
19005;BME280;9635;52.078;8.648;2023-02-28T21:13:06;101908.28;;;1.12;52.94
19005;BME280;9635;52.078;8.648;2023-02-28T21:18:10;101911.78;;;1.14;52.76
19005;BME280;9635;52.078;8.648;2023-02-28T21:23:13;101904.00;;;1.04;52.65
19005;BME280;9635;52.078;8.648;2023-02-28T21:28:16;101905.81;;;1.02;52.70
19005;BME280;9635;52.078;8.648;2023-02-28T21:33:20;101914.59;;;1.04;52.87
19005;BME280;9635;52.078;8.648;2023-02-28T21:38:23;101905.81;;;1.02;53.09
19005;BME280;9635;52.078;8.648;2023-02-28T21:43:25;101904.84;;;1.06;53.02
19005;BME280;9635;52.078;8.648;2023-02-28T21:48:30;101907.66;;;0.96;52.98
19005;BME280;9635;52.078;8.648;2023-02-28T21:53:35;101906.03;;;0.87;53.34
19005;BME280;9635;52.078;8.648;2023-02-28T21:58:38;101906.31;;;0.70;53.66
19005;BME280;9635;52.078;8.648;2023-02-28T22:03:43;101914.41;;;0.59;53.87
19005;BME280;9635;52.078;8.648;2023-02-28T22:08:48;101914.47;;;0.58;54.31
19005;BME280;9635;52.078;8.648;2023-02-28T22:13:52;101902.91;;;0.62;53.88
19005;BME280;9635;52.078;8.648;2023-02-28T22:18:58;101909.06;;;0.64;53.87
19005;BME280;9635;52.078;8.648;2023-02-28T22:24:04;101906.38;;;0.66;53.75
19005;BME280;9635;52.078;8.648;2023-02-28T22:29:07;101902.75;;;0.74;54.06
19005;BME280;9635;52.078;8.648;2023-02-28T22:34:12;101902.81;;;0.68;53.96
19005;BME280;9635;52.078;8.648;2023-02-28T22:39:15;101906.38;;;0.66;54.27
19005;BME280;9635;52.078;8.648;2023-02-28T22:44:18;101921.63;;;0.48;54.77
19005;BME280;9635;52.078;8.648;2023-02-28T22:49:24;101917.47;;;0.33;55.23
19005;BME280;9635;52.078;8.648;2023-02-28T22:54:27;101914.06;;;0.24;55.91
19005;BME280;9635;52.078;8.648;2023-02-28T22:59:29;101920.19;;;0.26;56.24
19005;BME280;9635;52.078;8.648;2023-02-28T23:04:33;101915.72;;;0.31;56.14
19005;BME280;9635;52.078;8.648;2023-02-28T23:09:36;101908.66;;;0.31;56.14
19005;BME280;9635;52.078;8.648;2023-02-28T23:14:39;101911.31;;;0.31;56.38
19005;BME280;9635;52.078;8.648;2023-02-28T23:19:44;101916.56;;;0.34;56.44
19005;BME280;9635;52.078;8.648;2023-02-28T23:24:47;101900.59;;;0.42;56.17
19005;BME280;9635;52.078;8.648;2023-02-28T23:29:50;101899.78;;;0.37;55.81
19005;BME280;9635;52.078;8.648;2023-02-28T23:34:54;101903.34;;;0.33;55.85
19005;BME280;9635;52.078;8.648;2023-02-28T23:39:57;101906.88;;;0.33;55.09
19005;BME280;9635;52.078;8.648;2023-02-28T23:45:00;101901.47;;;-0.24;56.59
19005;BME280;9635;52.078;8.648;2023-02-28T23:50:04;101912.75;;;-0.96;59.92
19005;BME280;9635;52.078;8.648;2023-02-28T23:55:08;101903.25;;;-1.12;60.10
